Adrian, Oregon
Current Conditions -  °F | °C
As of 5:53 AM on Tuesday 21 Oct 2014 (Local Time) from KONO Reporting Station
Overcast Overcast  
Wind Chill: 50°   Ceiling: 5500
Heat Index: 50°   Visibility: 10mi
Dew Point: 47°   Wind: 3mph
Humidity: 89%   Direction: 150°SSE
Pressure: 29.9"   Gusts: NA
Location:  43.74°N, 117.07°W
Report Text: KONO 211153Z AUTO 15003KT 10SM BKN055 OVC070 10/08 A2990 RMK AO2 SLP121 60012 70012 T01000083 10144 20100 53006
Loading
Personal Weather Stations






























Interactive Weather Map New forecast layout! Learn more

10-Day Weather Forecast

Advertisements
Track Severe Weather on mobile